Time;durP1;ratioP1;P1;durP2;ratioP2;P2;SDS_P1;SDS_P2;PMS_P1;PMS_P2;Temp;Humidity;BMP_temperature;BMP_pressure;BME280_temperature;BME280_humidity;BME280_pressure;Samples;Min_cycle;Max_cycle;Signal;HPM_P1;HPM_P2
2021/06/05 00:01:31;;;;;;;23.83;21.37;;;;;;;16.27;68.89;99393.62;125009;1092;64309;-84
2021/06/05 00:03:59;;;;;;;28.20;21.37;;;;;;;16.34;68.75;99389.44;125085;1093;64380;-86
2021/06/05 00:06:28;;;;;;;24.33;19.33;;;;;;;16.40;68.90;99388.91;125151;1093;64271;-86
2021/06/05 00:08:56;;;;;;;26.80;22.63;;;;;;;16.48;68.34;99382.88;125036;1093;64363;-85
2021/06/05 00:11:30;;;;;;;24.37;20.70;;;;;;;16.56;67.94;99383.95;125064;1093;64358;-88
2021/06/05 00:14:01;;;;;;;23.87;20.83;;;;;;;16.63;67.91;99381.57;125155;1093;64284;-85
2021/06/05 00:16:34;;;;;;;23.57;20.83;;;;;;;16.67;67.48;99393.80;125253;1093;64242;-87
2021/06/05 00:19:03;;;;;;;23.20;20.70;;;;;;;16.67;67.55;99388.41;125298;1093;64331;-86
2021/06/05 00:21:31;;;;;;;23.43;19.63;;;;;;;16.66;67.55;99389.38;125251;1093;64683;-87
2021/06/05 00:23:59;;;;;;;24.00;20.10;;;;;;;16.63;67.50;99398.56;125282;1093;64193;-85
2021/06/05 00:26:26;;;;;;;22.23;19.60;;;;;;;16.56;67.24;99402.79;125120;1093;64310;-88
2021/06/05 00:28:54;;;;;;;22.30;19.13;;;;;;;16.51;67.50;99398.75;125126;1091;64216;-86
2021/06/05 00:31:21;;;;;;;25.93;22.17;;;;;;;16.51;67.79;99391.56;125212;1093;64287;-88
2021/06/05 00:33:49;;;;;;;25.20;21.90;;;;;;;16.53;67.67;99402.17;124961;1093;64344;-86
2021/06/05 00:36:16;;;;;;;25.00;21.60;;;;;;;16.52;67.84;99401.33;124992;1093;64447;-86
2021/06/05 00:38:44;;;;;;;24.23;21.70;;;;;;;16.50;68.23;99397.91;124919;1093;64389;-85
2021/06/05 00:41:16;;;;;;;27.20;23.73;;;;;;;16.45;68.15;99384.84;124962;1093;64248;-87
2021/06/05 00:43:59;;;;;;;29.83;21.27;;;;;;;16.43;68.49;99388.67;124938;1093;64370;-85
2021/06/05 00:46:28;;;;;;;25.80;20.05;;;;;;;16.32;68.83;99383.33;125151;1093;64338;-86
2021/06/05 00:48:57;;;;;;;28.35;22.68;;;;;;;16.25;69.13;99385.70;125154;1093;64244;-85
2021/06/05 00:51:49;;;;;;;28.07;22.90;;;;;;;16.24;69.16;99386.66;125136;1093;64415;-88
2021/06/05 00:54:18;;;;;;;39.33;27.67;;;;;;;16.19;69.48;99387.08;125169;1093;64271;-90
2021/06/05 00:56:53;;;;;;;40.80;29.47;;;;;;;16.14;69.98;99388.41;125273;1093;64673;-90
2021/06/05 00:59:22;;;;;;;38.17;28.03;;;;;;;16.14;69.98;99389.29;125148;1093;64271;-90
2021/06/05 01:01:50;;;;;;;33.70;25.77;;;;;;;16.15;70.08;99379.38;125147;1093;64281;-91
2021/06/05 01:04:18;;;;;;;32.15;25.75;;;;;;;16.15;70.56;99374.00;125211;1093;64399;-90
2021/06/05 01:07:12;;;;;;;34.00;25.20;;;;;;;16.15;70.59;99365.94;125081;1093;64290;-89
2021/06/05 01:10:00;;;;;;;29.33;23.10;;;;;;;16.17;70.44;99367.52;125239;1093;64297;-88
2021/06/05 01:12:48;;;;;;;34.27;24.93;;;;;;;16.22;70.91;99373.36;125070;1093;64283;-86
2021/06/05 01:15:34;;;;;;;29.83;24.03;;;;;;;16.20;71.39;99372.63;125129;1093;64398;-86
2021/06/05 01:18:09;;;;;;;24.93;22.23;;;;;;;16.15;70.86;99365.94;125139;1093;64274;-86
2021/06/05 01:20:49;;;;;;;26.73;21.43;;;;;;;16.12;71.21;99361.67;125178;1093;64265;-86
2021/06/05 01:23:25;;;;;;;24.48;21.88;;;;;;;16.10;71.70;99362.78;125099;1092;64271;-89
2021/06/05 01:26:17;;;;;;;22.93;20.70;;;;;;;16.01;71.77;99365.27;125187;1093;64285;-88
2021/06/05 01:29:03;;;;;;;23.63;21.13;;;;;;;15.98;71.87;99353.89;125079;1093;64323;-87
2021/06/05 01:31:38;;;;;;;22.33;19.97;;;;;;;16.05;71.68;99343.49;125116;1093;64182;-86
2021/06/05 01:34:06;;;;;;;23.27;19.77;;;;;;;16.11;71.70;99335.74;125212;1093;64241;-87
2021/06/05 01:36:40;;;;;;;23.33;20.80;;;;;;;16.14;71.75;99340.89;125250;1093;64396;-84
2021/06/05 01:39:11;;;;;;;24.17;19.80;;;;;;;16.16;71.72;99333.52;125220;1093;64248;-87
2021/06/05 01:41:42;;;;;;;22.60;18.97;;;;;;;16.17;71.53;99335.25;124924;1093;64300;-85
2021/06/05 01:44:11;;;;;;;21.90;18.40;;;;;;;16.19;71.29;99343.16;125043;1093;64291;-84
2021/06/05 01:46:43;;;;;;;21.57;19.47;;;;;;;16.19;71.39;99333.29;125182;1091;64275;-84
2021/06/05 01:49:11;;;;;;;19.93;17.10;;;;;;;16.19;71.12;99330.59;125234;1093;64226;-87
2021/06/05 01:51:44;;;;;;;20.20;15.83;;;;;;;16.20;71.00;99328.76;125297;1093;64262;-86
2021/06/05 01:54:20;;;;;;;17.97;16.07;;;;;;;16.21;70.81;99333.14;125140;1093;64373;-85
2021/06/05 01:56:53;;;;;;;18.53;16.53;;;;;;;16.19;70.56;99325.22;125204;1093;64284;-87
2021/06/05 01:59:21;;;;;;;20.30;15.80;;;;;;;16.20;70.24;99318.00;125344;1093;64357;-86
2021/06/05 02:01:49;;;;;;;17.75;15.70;;;;;;;16.17;70.00;99321.80;125228;1093;64244;-86
2021/06/05 02:04:17;;;;;;;17.95;16.05;;;;;;;16.16;69.91;99316.54;125314;1093;64322;-86
2021/06/05 02:06:47;;;;;;;17.93;16.13;;;;;;;16.12;70.28;99323.18;125240;1093;64245;-85
2021/06/05 02:09:18;;;;;;;17.05;15.20;;;;;;;16.08;69.98;99327.94;125073;1093;64415;-84
2021/06/05 02:11:57;;;;;;;17.83;14.00;;;;;;;15.98;69.52;99330.58;125071;1093;64210;-84
2021/06/05 02:14:38;;;;;;;16.70;14.85;;;;;;;15.94;69.54;99333.64;125004;1093;64354;-85
2021/06/05 02:17:11;;;;;;;18.53;15.13;;;;;;;15.98;69.49;99340.45;124964;1093;64260;-85
2021/06/05 02:19:44;;;;;;;17.13;15.23;;;;;;;15.99;69.34;99344.86;125017;1093;64188;-85
2021/06/05 02:22:19;;;;;;;18.97;16.50;;;;;;;15.91;70.07;99355.41;125145;1093;64405;-85
2021/06/05 02:24:49;;;;;;;19.47;17.47;;;;;;;15.80;70.52;99372.42;125020;1093;64268;-86
2021/06/05 02:27:22;;;;;;;22.23;18.27;;;;;;;15.73;70.85;99377.44;125037;1093;64216;-84
2021/06/05 02:29:53;;;;;;;19.25;16.40;;;;;;;15.68;70.82;99376.92;125088;1093;64241;-84
2021/06/05 02:32:22;;;;;;;;;;;;;;;15.70;70.96;99380.38;125193;1093;64363;-85
2021/06/05 02:34:52;;;;;;;21.07;17.90;;;;;;;15.69;70.96;99369.75;125341;1093;64281;-83
2021/06/05 02:37:25;;;;;;;19.20;16.07;;;;;;;15.72;71.06;99364.14;125169;1093;64380;-85
2021/06/05 02:39:58;;;;;;;21.90;19.17;;;;;;;15.81;71.01;99357.99;125058;1093;64362;-86
2021/06/05 02:42:26;;;;;;;22.87;20.30;;;;;;;15.82;71.34;99361.53;125020;1093;64264;-85
2021/06/05 02:44:56;;;;;;;25.33;21.63;;;;;;;15.76;71.72;99365.58;125057;1093;64325;-85
2021/06/05 02:47:25;;;;;;;;;;;;;;;15.67;72.10;99372.55;125172;1093;64380;-85
2021/06/05 02:49:53;;;;;;;25.70;23.03;;;;;;;15.63;71.72;99373.77;125020;1093;64198;-85
2021/06/05 02:52:29;;;;;;;26.20;21.83;;;;;;;15.61;72.23;99383.77;125168;1093;64217;-86
2021/06/05 02:55:00;;;;;;;25.70;22.33;;;;;;;15.61;72.09;99382.92;125153;1093;64333;-84
2021/06/05 02:57:29;;;;;;;26.50;20.93;;;;;;;15.59;72.50;99385.75;125105;1093;64428;-86
2021/06/05 02:59:57;;;;;;;25.53;22.83;;;;;;;15.59;72.07;99377.70;125123;1093;64290;-85
2021/06/05 03:02:24;;;;;;;25.27;22.67;;;;;;;15.61;72.50;99386.45;125023;1093;64268;-85
2021/06/05 03:04:52;;;;;;;24.13;20.97;;;;;;;15.59;72.37;99386.60;125058;1093;64763;-85
2021/06/05 03:07:19;;;;;;;26.10;20.50;;;;;;;15.58;72.75;99390.25;125221;1093;64243;-86
2021/06/05 03:09:47;;;;;;;25.85;20.75;;;;;;;15.57;72.61;99401.98;125084;1093;64188;-87
2021/06/05 03:12:14;;;;;;;27.57;21.77;;;;;;;15.60;72.57;99406.25;125231;1092;64409;-87
2021/06/05 03:14:42;;;;;;;23.57;21.00;;;;;;;15.65;72.55;99419.33;125134;1093;64621;-85
2021/06/05 03:17:11;;;;;;;24.95;20.80;;;;;;;15.66;72.59;99404.90;125168;1092;64287;-84
2021/06/05 03:19:39;;;;;;;27.13;22.75;;;;;;;15.67;72.55;99404.79;125062;1093;64245;-84
2021/06/05 03:22:07;;;;;;;26.07;22.60;;;;;;;15.73;72.61;99406.14;125016;1092;64284;-85
2021/06/05 03:24:34;;;;;;;24.97;22.13;;;;;;;15.78;72.36;99396.72;125043;1093;64376;-86
2021/06/05 03:27:03;;;;;;;24.07;21.57;;;;;;;15.84;72.45;99394.52;125272;1093;64297;-88
2021/06/05 03:29:30;;;;;;;23.13;20.70;;;;;;;15.86;72.54;99395.25;125210;1092;64182;-88
2021/06/05 03:31:59;;;;;;;26.33;20.47;;;;;;;15.88;72.34;99387.92;125397;1093;64377;-88
2021/06/05 03:34:26;;;;;;;25.53;22.20;;;;;;;15.83;72.53;99399.05;125645;1093;64418;-88
2021/06/05 03:36:53;;;;;;;23.05;20.50;;;;;;;15.82;72.51;99396.47;125548;1093;64208;-86
2021/06/05 03:39:21;;;;;;;22.90;20.47;;;;;;;15.82;72.67;99397.31;125582;1093;64369;-86
2021/06/05 03:41:48;;;;;;;24.00;21.43;;;;;;;15.82;72.84;99393.78;125490;1093;64159;-85
2021/06/05 03:44:15;;;;;;;25.50;21.73;;;;;;;15.86;73.00;99397.94;125252;1093;64402;-86
2021/06/05 03:46:42;;;;;;;29.23;26.20;;;;;;;15.91;73.17;99382.28;125277;1093;64380;-86
2021/06/05 03:49:10;;;;;;;31.13;27.73;;;;;;;15.94;73.22;99379.34;125280;1093;64297;-86
2021/06/05 03:51:37;;;;;;;31.30;28.07;;;;;;;15.94;73.23;99374.81;125371;1093;64268;-85
2021/06/05 03:54:04;;;;;;;31.00;27.83;;;;;;;15.95;73.36;99367.59;125339;1093;64276;-86
2021/06/05 03:56:34;;;;;;;26.40;23.50;;;;;;;15.97;73.57;99373.70;125182;1093;64317;-86
2021/06/05 03:59:02;;;;;;;27.93;23.60;;;;;;;15.99;73.41;99380.66;125432;1093;64363;-86
2021/06/05 04:01:31;;;;;;;23.03;20.60;;;;;;;16.00;73.42;99376.98;125331;1093;64407;-86
2021/06/05 04:03:58;;;;;;;22.17;19.90;;;;;;;16.01;73.62;99386.77;125353;1093;64287;-85
2021/06/05 04:06:27;;;;;;;23.13;20.73;;;;;;;16.02;73.23;99387.62;125276;1093;64184;-86
2021/06/05 04:08:58;;;;;;;21.00;18.73;;;;;;;15.99;73.45;99396.79;125101;1093;64280;-86
2021/06/05 04:11:28;;;;;;;22.33;19.93;;;;;;;15.90;73.30;99410.97;125179;1093;64435;-86
2021/06/05 04:13:56;;;;;;;21.60;19.40;;;;;;;15.89;74.20;99419.18;125108;1093;64309;-86
2021/06/05 04:16:24;;;;;;;24.77;21.70;;;;;;;15.87;73.76;99418.45;125265;1092;64319;-85
2021/06/05 04:18:52;;;;;;;23.53;21.03;;;;;;;15.86;74.34;99419.44;125199;1093;64191;-85
2021/06/05 04:21:21;;;;;;;23.40;20.90;;;;;;;15.78;74.31;99418.22;125148;1093;64270;-85
2021/06/05 04:23:49;;;;;;;23.33;20.98;;;;;;;15.78;74.41;99426.29;125113;1093;64351;-85
2021/06/05 04:26:17;;;;;;;21.57;19.27;;;;;;;15.83;74.69;99417.86;125034;1093;64254;-86
2021/06/05 04:28:45;;;;;;;21.17;18.80;;;;;;;15.88;74.42;99422.86;125076;1093;64307;-85
2021/06/05 04:31:13;;;;;;;19.23;17.23;;;;;;;15.93;74.26;99428.69;125047;1093;64344;-85
2021/06/05 04:33:41;;;;;;;19.73;17.43;;;;;;;15.99;74.18;99422.83;125081;1093;64271;-83
2021/06/05 04:36:12;;;;;;;17.80;16.00;;;;;;;16.03;73.60;99426.95;125122;1093;64300;-84
2021/06/05 04:38:42;;;;;;;20.60;18.43;;;;;;;16.08;74.08;99424.73;125066;1093;64415;-83
2021/06/05 04:41:12;;;;;;;22.80;19.30;;;;;;;16.12;73.63;99414.60;125128;1093;64364;-83
2021/06/05 04:43:40;;;;;;;23.03;19.80;;;;;;;16.19;74.53;99405.02;124940;1093;64216;-83
2021/06/05 04:46:09;;;;;;;25.15;20.45;;;;;;;16.18;74.14;99401.48;124964;1093;64156;-83
2021/06/05 04:48:37;;;;;;;22.50;20.20;;;;;;;16.19;74.26;99396.95;125046;1093;64220;-82
2021/06/05 04:51:04;;;;;;;22.57;20.37;;;;;;;16.19;74.33;99396.95;125045;1093;64285;-84
2021/06/05 04:53:33;;;;;;;23.10;20.63;;;;;;;16.20;74.08;99394.14;124984;1093;64265;-83
2021/06/05 04:56:01;;;;;;;23.20;19.70;;;;;;;16.22;74.23;99389.50;124989;1093;64252;-85
2021/06/05 04:58:30;;;;;;;22.75;19.60;;;;;;;16.21;74.20;99384.23;125156;1093;64659;-85
2021/06/05 05:00:59;;;;;;;21.80;19.43;;;;;;;16.23;74.03;99390.34;125275;1093;64256;-85
2021/06/05 05:03:28;;;;;;;21.67;19.47;;;;;;;16.28;73.85;99389.97;125131;1093;64262;-85
2021/06/05 05:06:00;;;;;;;21.70;18.57;;;;;;;16.32;74.40;99396.78;125076;1093;64281;-86
2021/06/05 05:08:28;;;;;;;20.80;18.70;;;;;;;16.32;73.82;99394.09;125179;1093;64188;-85
2021/06/05 05:10:57;;;;;;;21.23;19.13;;;;;;;16.32;74.18;99388.70;125096;1093;64191;-85
2021/06/05 05:13:29;;;;;;;21.90;19.70;;;;;;;16.33;74.07;99388.59;125074;1093;64377;-85
2021/06/05 05:15:58;;;;;;;20.23;18.43;;;;;;;16.35;74.16;99394.70;125034;1093;64383;-84
2021/06/05 05:18:26;;;;;;;21.23;18.70;;;;;;;16.34;74.40;99392.98;125130;1093;64354;-85
2021/06/05 05:20:55;;;;;;;19.45;17.45;;;;;;;16.33;74.49;99393.97;125045;1093;64295;-86
2021/06/05 05:23:27;;;;;;;21.23;19.13;;;;;;;16.32;74.28;99405.69;125145;1093;64316;-86
2021/06/05 05:25:57;;;;;;;19.77;17.70;;;;;;;16.31;74.42;99413.91;125157;1093;64419;-86
2021/06/05 05:28:25;;;;;;;20.60;18.45;;;;;;;16.31;74.64;99420.14;125271;1093;64339;-85
2021/06/05 05:30:55;;;;;;;21.53;19.17;;;;;;;16.30;74.76;99428.32;125148;1093;64287;-85
2021/06/05 05:33:23;;;;;;;20.90;18.80;;;;;;;16.23;74.71;99452.20;125061;1093;64281;-85
2021/06/05 05:35:53;;;;;;;22.20;19.80;;;;;;;16.20;74.88;99447.08;125050;1093;64279;-84
2021/06/05 05:38:21;;;;;;;20.40;18.33;;;;;;;16.29;75.08;99440.92;124987;1093;64363;-84
2021/06/05 05:40:49;;;;;;;21.73;19.63;;;;;;;16.34;74.67;99435.16;125104;1093;64210;-85
2021/06/05 05:43:17;;;;;;;20.13;18.20;;;;;;;16.42;74.68;99438.91;125021;1093;64297;-84
2021/06/05 05:45:45;;;;;;;21.77;19.57;;;;;;;16.52;74.93;99433.61;125063;1093;64287;-84
2021/06/05 05:48:13;;;;;;;21.03;18.93;;;;;;;16.60;74.51;99431.13;125079;1093;64291;-83
2021/06/05 05:50:43;;;;;;;21.00;19.00;;;;;;;16.66;74.22;99435.97;124927;1093;64287;-83
2021/06/05 05:53:11;;;;;;;21.40;19.23;;;;;;;16.73;73.96;99420.17;125022;1093;64300;-83
2021/06/05 05:55:39;;;;;;;19.57;17.53;;;;;;;16.77;73.92;99426.13;125165;1093;64621;-83
2021/06/05 05:58:16;;;;;;;19.03;17.00;;;;;;;16.78;73.60;99414.43;124942;1093;64351;-84
2021/06/05 06:00:45;;;;;;;19.00;17.13;;;;;;;16.80;73.86;99418.70;125086;1093;64254;-84
2021/06/05 06:03:15;;;;;;;18.20;16.33;;;;;;;16.81;73.57;99433.85;124998;1093;64291;-84
2021/06/05 06:05:43;;;;;;;16.78;15.25;;;;;;;16.80;73.47;99436.70;125052;1093;64335;-84
2021/06/05 06:08:12;;;;;;;16.13;14.53;;;;;;;16.75;73.57;99445.13;125050;1093;64267;-84
2021/06/05 06:10:40;;;;;;;16.33;14.63;;;;;;;16.77;73.92;99427.05;125029;1093;64307;-84
2021/06/05 06:13:08;;;;;;;17.17;15.50;;;;;;;16.80;73.82;99428.62;125076;1093;64271;-84
2021/06/05 06:15:36;;;;;;;15.23;13.50;;;;;;;16.82;73.87;99432.01;125011;1093;64447;-84
2021/06/05 06:18:05;;;;;;;15.73;13.87;;;;;;;16.84;73.87;99422.81;125079;1093;64262;-85
2021/06/05 06:20:42;;;;;;;15.87;14.27;;;;;;;16.82;73.87;99432.01;125287;1093;64281;-82
2021/06/05 06:23:12;;;;;;;15.07;13.57;;;;;;;16.78;73.59;99430.58;124968;1092;64265;-83
2021/06/05 06:25:40;;;;;;;14.97;13.47;;;;;;;16.71;73.95;99430.20;125000;1093;64775;-83
2021/06/05 06:28:11;;;;;;;13.73;12.43;;;;;;;16.63;73.90;99414.71;125038;1093;64242;-83
2021/06/05 06:30:41;;;;;;;14.43;13.00;;;;;;;16.57;74.07;99417.09;125051;1093;64265;-83
2021/06/05 06:33:11;;;;;;;13.85;11.68;;;;;;;16.48;73.81;99447.45;125128;1093;64188;-85
2021/06/05 06:35:39;;;;;;;12.10;10.87;;;;;;;16.32;74.12;99464.02;125186;1093;64268;-84
2021/06/05 06:38:11;;;;;;;14.07;12.67;;;;;;;16.21;74.42;99457.69;125308;1093;64401;-85
2021/06/05 06:40:39;;;;;;;13.60;12.13;;;;;;;16.22;74.67;99447.81;125299;1093;64225;-83
2021/06/05 06:43:10;;;;;;;12.50;11.23;;;;;;;16.26;74.54;99435.80;125080;1093;64217;-85
2021/06/05 06:45:38;;;;;;;14.37;12.03;;;;;;;16.30;75.17;99428.32;125135;1093;64388;-86
2021/06/05 06:48:06;;;;;;;13.00;11.60;;;;;;;16.32;74.77;99420.98;125089;1092;64281;-85
2021/06/05 06:50:33;;;;;;;12.90;11.30;;;;;;;16.39;75.00;99414.11;125149;1092;64268;-85
2021/06/05 06:53:01;;;;;;;12.40;11.17;;;;;;;16.45;74.76;99417.13;125160;1093;64472;-84
2021/06/05 06:55:29;;;;;;;11.63;10.43;;;;;;;16.48;74.76;99415.16;125254;1091;64188;-84
2021/06/05 06:57:56;;;;;;;12.23;10.97;;;;;;;16.52;74.85;99408.55;125183;1093;64284;-84
2021/06/05 07:00:29;;;;;;;12.23;10.20;;;;;;;16.50;74.65;99405.98;125352;1093;64275;-86
2021/06/05 07:02:56;;;;;;;11.00;9.83;;;;;;;16.47;74.56;99398.17;125397;1093;64769;-86
2021/06/05 07:05:24;;;;;;;12.00;10.40;;;;;;;16.43;74.50;99402.13;125455;1093;64393;-85
2021/06/05 07:08:04;;;;;;;10.83;9.73;;;;;;;16.39;74.33;99396.13;125346;1092;64395;-84
2021/06/05 07:10:32;;;;;;;11.17;9.47;;;;;;;16.41;74.59;99390.63;125385;1093;64288;-85
2021/06/05 07:12:59;;;;;;;13.13;10.30;;;;;;;16.43;74.58;99389.52;125220;1093;64275;-84
2021/06/05 07:15:26;;;;;;;12.60;9.90;;;;;;;16.50;74.64;99389.84;125092;1093;64273;-83
2021/06/05 07:17:54;;;;;;;11.57;10.37;;;;;;;16.59;74.70;99374.77;124967;1093;64278;-84
2021/06/05 07:20:21;;;;;;;10.60;9.50;;;;;;;16.67;74.51;99374.95;125043;1093;64184;-85
2021/06/05 07:22:52;;;;;;;12.07;9.63;;;;;;;16.73;74.27;99365.49;124922;1093;64245;-84
2021/06/05 07:25:20;;;;;;;10.50;9.43;;;;;;;16.78;74.61;99357.91;124976;1093;64267;-84
2021/06/05 07:27:49;;;;;;;10.27;9.30;;;;;;;16.83;74.16;99351.13;125005;1093;64356;-84
2021/06/05 07:30:17;;;;;;;10.47;9.47;;;;;;;16.87;74.19;99341.78;125000;1093;64644;-84
2021/06/05 07:32:44;;;;;;;9.30;7.97;;;;;;;16.97;74.23;99347.22;124894;1093;64431;-85
2021/06/05 07:35:11;;;;;;;8.67;7.80;;;;;;;17.05;73.76;99349.25;125089;1093;64287;-86
2021/06/05 07:37:39;;;;;;;7.63;6.83;;;;;;;17.15;73.68;99339.37;125111;1093;64331;-85
2021/06/05 07:40:11;;;;;;;10.00;7.30;;;;;;;17.31;73.78;99333.47;125068;1093;64287;-85
2021/06/05 07:42:38;;;;;;;7.45;6.75;;;;;;;17.54;73.40;99328.70;125012;1093;64369;-85
2021/06/05 07:45:08;;;;;;;6.37;5.87;;;;;;;17.85;73.21;99325.92;124998;1093;64251;-84
2021/06/05 07:47:37;;;;;;;7.30;6.40;;;;;;;18.19;72.65;99326.34;124991;1093;64293;-83
2021/06/05 07:50:09;;;;;;;7.00;6.40;;;;;;;18.56;72.06;99326.45;125053;1093;64305;-85
2021/06/05 07:52:37;;;;;;;6.70;6.10;;;;;;;18.89;71.65;99326.95;125050;1093;64268;-85
2021/06/05 07:55:07;;;;;;;10.30;9.33;;;;;;;19.17;71.31;99324.27;125001;1092;64408;-84
2021/06/05 07:57:34;;;;;;;7.97;7.20;;;;;;;19.39;70.74;99325.73;124999;1093;64647;-83
2021/06/05 08:00:08;;;;;;;8.93;8.03;;;;;;;19.53;70.57;99304.42;125017;1092;64332;-84
2021/06/05 08:02:35;;;;;;;8.57;6.93;;;;;;;19.64;69.89;99297.98;124874;1093;64355;-85
2021/06/05 08:05:05;;;;;;;8.90;7.00;;;;;;;19.66;69.72;99298.68;125203;1093;64276;-85
2021/06/05 08:07:33;;;;;;;7.50;6.80;;;;;;;19.63;69.53;99290.00;124970;1093;64300;-85
2021/06/05 08:10:03;;;;;;;7.50;6.73;;;;;;;19.60;69.50;99290.31;125041;1093;64316;-84
2021/06/05 08:12:30;;;;;;;7.00;6.40;;;;;;;19.71;69.78;99295.52;125257;1092;64766;-86
2021/06/05 08:14:58;;;;;;;6.93;6.17;;;;;;;19.91;69.04;99301.64;124938;1093;64287;-86
2021/06/05 08:17:26;;;;;;;7.00;6.30;;;;;;;20.11;68.87;99294.19;125041;1092;64260;-88
2021/06/05 08:19:54;;;;;;;6.80;6.03;;;;;;;20.36;68.38;99287.13;125355;1093;64494;-86
2021/06/05 08:22:24;;;;;;;6.73;6.03;;;;;;;20.83;68.28;99284.08;125839;1093;64219;-86
2021/06/05 08:24:51;;;;;;;6.45;5.85;;;;;;;21.47;68.09;99289.94;125553;1093;64335;-84
2021/06/05 08:27:19;;;;;;;9.00;7.43;;;;;;;21.97;66.98;99286.30;125272;1093;64334;-82
2021/06/05 08:29:47;;;;;;;6.87;6.17;;;;;;;22.12;66.73;99286.48;125077;1093;64210;-83
2021/06/05 08:32:14;;;;;;;10.90;9.80;;;;;;;22.09;65.61;99286.80;124924;1093;64293;-83
2021/06/05 08:34:42;;;;;;;8.25;7.45;;;;;;;22.18;65.49;99293.09;125441;1093;64296;-84
2021/06/05 08:37:10;;;;;;;6.87;6.27;;;;;;;22.35;65.24;99284.81;125455;1093;64300;-82
2021/06/05 08:39:38;;;;;;;6.93;6.23;;;;;;;22.72;65.04;99274.36;125514;1093;64309;-83
2021/06/05 08:42:11;;;;;;;7.00;5.73;;;;;;;23.13;64.70;99274.27;125387;1092;64191;-83
2021/06/05 08:44:41;;;;;;;7.07;6.37;;;;;;;23.49;62.64;99268.31;125270;1093;64466;-82
2021/06/05 08:47:26;;;;;;;6.70;6.03;;;;;;;23.63;62.56;99264.81;125491;1093;64233;-82
2021/06/05 08:49:54;;;;;;;6.70;6.10;;;;;;;23.72;61.76;99276.52;125342;1093;64248;-83
2021/06/05 08:52:48;;;;;;;7.10;5.73;;;;;;;23.71;61.67;99283.80;125336;1092;64383;-83
2021/06/05 08:55:22;;;;;;;6.80;6.10;;;;;;;23.48;61.03;99291.09;125257;1093;64325;-82
2021/06/05 08:57:56;;;;;;;6.77;6.17;;;;;;;23.15;61.11;99307.57;125274;1093;64290;-83
2021/06/05 09:00:30;;;;;;;6.23;5.63;;;;;;;22.71;60.77;99311.56;125439;1093;64115;-83
2021/06/05 09:03:05;;;;;;;6.57;6.07;;;;;;;22.27;61.50;99324.67;125300;1092;64367;-84
2021/06/05 09:05:37;;;;;;;7.70;6.03;;;;;;;21.84;61.13;99329.36;125438;1093;64226;-83
2021/06/05 09:08:06;;;;;;;6.10;5.37;;;;;;;21.54;61.60;99320.81;125336;1093;64287;-84
2021/06/05 09:10:36;;;;;;;6.17;5.67;;;;;;;21.35;62.08;99318.33;125418;1093;64406;-84
2021/06/05 09:13:03;;;;;;;6.23;5.63;;;;;;;21.21;62.50;99311.67;125144;1092;64326;-83
2021/06/05 09:15:35;;;;;;;7.03;6.33;;;;;;;21.11;63.03;99292.83;125149;1093;64288;-83
2021/06/05 09:18:09;;;;;;;6.10;5.60;;;;;;;21.04;63.86;99283.67;126137;1092;64212;-82
2021/06/05 09:20:38;;;;;;;6.00;5.50;;;;;;;20.92;64.50;99271.41;125147;1093;64368;-84
2021/06/05 09:23:31;;;;;;;7.30;6.03;;;;;;;20.74;64.53;99266.91;125103;1093;64287;-83
2021/06/05 09:26:25;;;;;;;6.90;5.63;;;;;;;20.66;64.96;99258.73;125344;1093;64342;-83
2021/06/05 09:29:12;;;;;;;6.40;5.90;;;;;;;20.64;65.26;99246.37;125411;1093;64247;-83
2021/06/05 09:31:53;;;;;;;6.90;6.20;;;;;;;20.69;65.89;99254.86;125452;1093;64249;-83
2021/06/05 09:34:22;;;;;;;7.40;6.80;;;;;;;20.83;65.03;99260.53;125499;1093;64341;-83
2021/06/05 09:36:50;;;;;;;7.40;6.45;;;;;;;20.85;65.24;99262.22;125664;1093;64291;-83
2021/06/05 09:39:35;;;;;;;7.27;6.57;;;;;;;20.78;65.40;99252.05;125556;1093;64370;-83
2021/06/05 09:42:03;;;;;;;7.43;5.73;;;;;;;20.76;65.70;99255.92;125409;1093;64276;-83
2021/06/05 09:44:41;;;;;;;6.67;5.93;;;;;;;20.79;65.77;99247.47;125418;1092;64316;-81
2021/06/05 09:47:23;;;;;;;6.00;5.47;;;;;;;20.98;65.08;99243.66;125394;1093;64351;-83
2021/06/05 09:49:58;;;;;;;6.40;5.85;;;;;;;21.12;65.32;99240.34;125623;1093;64369;-84
2021/06/05 09:52:34;;;;;;;5.13;4.67;;;;;;;21.34;64.88;99238.86;125693;1093;64278;-83
2021/06/05 09:55:29;;;;;;;4.90;4.50;;;;;;;21.47;64.28;99236.55;125424;1094;64379;-84
2021/06/05 09:57:58;;;;;;;5.30;4.80;;;;;;;21.53;63.82;99229.61;125239;1093;64347;-83
2021/06/05 10:00:37;;;;;;;5.40;4.90;;;;;;;21.65;64.24;99225.56;125495;1092;64372;-83
2021/06/05 10:03:20;;;;;;;8.50;7.65;;;;;;;21.83;64.33;99230.00;125036;1093;64798;-83
2021/06/05 10:05:50;;;;;;;10.70;9.15;;;;;;;21.99;63.86;99229.98;125576;1093;64194;-84
2021/06/05 10:08:35;;;;;;;8.07;6.70;;;;;;;22.00;63.59;99230.83;125784;1093;64297;-83
2021/06/05 10:11:10;;;;;;;7.63;6.30;;;;;;;21.96;63.37;99227.63;125350;1093;64290;-84
2021/06/05 10:13:42;;;;;;;7.07;6.30;;;;;;;22.07;63.76;99229.14;125397;1093;64156;-84
2021/06/05 10:16:17;;;;;;;7.70;7.10;;;;;;;22.39;63.22;99227.43;125479;1093;64361;-82
2021/06/05 10:18:52;;;;;;;9.27;7.83;;;;;;;22.94;62.65;99227.42;125454;1093;64562;-82
2021/06/05 10:21:22;;;;;;;5.07;4.60;;;;;;;23.37;60.38;99219.73;125398;1093;64260;-82
2021/06/05 10:23:57;;;;;;;;;;;;;;;23.63;60.40;99213.95;125323;1093;64268;-84
2021/06/05 10:26:32;;;;;;;4.63;4.23;;;;;;;24.06;60.22;99211.58;125298;1093;64297;-82
2021/06/05 10:29:13;;;;;;;5.23;4.73;;;;;;;24.51;59.66;99209.83;125257;1093;64250;-83
2021/06/05 10:31:42;;;;;;;4.00;3.60;;;;;;;24.82;57.46;99200.59;125204;1093;64488;-84
2021/06/05 10:34:14;;;;;;;3.73;3.40;;;;;;;25.08;57.97;99199.25;125265;1093;64162;-83
2021/06/05 10:36:46;;;;;;;4.30;3.90;;;;;;;25.50;57.75;99194.92;125322;1093;64290;-83
2021/06/05 10:39:19;;;;;;;4.27;3.97;;;;;;;25.87;56.28;99198.46;125404;1093;64225;-84
2021/06/05 10:41:57;;;;;;;3.77;3.50;;;;;;;26.04;54.86;99195.26;125121;1093;64805;-85
2021/06/05 10:44:25;;;;;;;4.20;3.90;;;;;;;26.20;53.82;99196.02;125102;1093;64266;-84
2021/06/05 10:47:01;;;;;;;5.60;3.97;;;;;;;26.20;52.51;99196.85;125032;1093;64303;-84
2021/06/05 10:50:00;;;;;;;4.70;3.97;;;;;;;26.20;51.25;99194.12;125018;1093;64271;-82
2021/06/05 10:52:30;;;;;;;4.40;4.00;;;;;;;26.12;51.32;99182.47;125015;1093;64290;-83
2021/06/05 10:55:08;;;;;;;4.60;4.07;;;;;;;26.25;52.60;99190.77;125006;1093;64220;-84
2021/06/05 10:57:40;;;;;;;4.90;4.40;;;;;;;26.36;53.04;99181.20;125024;1093;64332;-82
2021/06/05 11:00:23;;;;;;;4.67;4.37;;;;;;;26.28;51.81;99188.50;125180;1093;64271;-83
2021/06/05 11:02:53;;;;;;;6.50;4.30;;;;;;;26.15;52.74;99179.38;126048;1093;64299;-92
2021/06/05 11:05:24;;;;;;;4.60;4.20;;;;;;;26.10;52.50;99169.03;125366;1093;64300;-80
2021/06/05 11:08:20;;;;;;;4.73;4.33;;;;;;;25.85;51.07;99165.88;125741;1092;64271;-83
2021/06/05 11:10:52;;;;;;;4.40;4.10;;;;;;;25.48;51.01;99167.81;125592;1093;64412;-83
2021/06/05 11:13:32;;;;;;;5.30;4.03;;;;;;;25.25;50.23;99168.02;125126;1093;64168;-84
2021/06/05 11:16:13;;;;;;;5.80;4.33;;;;;;;25.08;50.43;99161.91;125230;1092;64194;-84
2021/06/05 11:19:02;;;;;;;8.60;3.93;;;;;;;25.06;51.05;99158.52;124926;1093;64293;-83
2021/06/05 11:21:29;;;;;;;4.30;3.90;;;;;;;25.04;51.47;99159.74;125168;1093;64386;-84
2021/06/05 11:23:56;;;;;;;4.57;3.90;;;;;;;25.06;50.45;99152.22;125099;1093;64340;-82
2021/06/05 11:26:36;;;;;;;5.67;4.13;;;;;;;24.98;49.64;99156.75;125138;1093;64271;-82
2021/06/05 11:29:22;;;;;;;4.33;4.03;;;;;;;24.93;49.81;99158.36;125229;1093;64276;-83
2021/06/05 11:31:57;;;;;;;5.00;4.53;;;;;;;24.94;49.17;99150.00;125225;1093;64188;-83
2021/06/05 11:34:33;;;;;;;5.17;4.77;;;;;;;25.16;49.89;99153.63;125198;1093;64325;-83
2021/06/05 11:37:07;;;;;;;4.43;4.13;;;;;;;25.47;49.13;99154.38;125334;1093;64344;-81